sensor_id;sensor_type;location;lat;lon;timestamp;P1;durP1;ratioP1;P2;durP2;ratioP2
2760;SDS011;15420;48.636;9.798;2022-11-24T00:01:16;6.07;;;2.50;;
2760;SDS011;15420;48.636;9.798;2022-11-24T00:03:46;3.40;;;1.47;;
2760;SDS011;15420;48.636;9.798;2022-11-24T00:06:20;4.03;;;1.50;;
2760;SDS011;15420;48.636;9.798;2022-11-24T00:08:49;3.53;;;1.97;;
2760;SDS011;15420;48.636;9.798;2022-11-24T00:11:20;4.20;;;1.60;;
2760;SDS011;15420;48.636;9.798;2022-11-24T00:13:48;5.83;;;2.70;;
2760;SDS011;15420;48.636;9.798;2022-11-24T00:16:16;9.93;;;1.80;;
2760;SDS011;15420;48.636;9.798;2022-11-24T00:18:44;10.70;;;1.80;;
2760;SDS011;15420;48.636;9.798;2022-11-24T00:21:15;2.80;;;1.90;;
2760;SDS011;15420;48.636;9.798;2022-11-24T00:23:42;7.13;;;2.57;;
2760;SDS011;15420;48.636;9.798;2022-11-24T00:26:15;4.70;;;1.77;;
2760;SDS011;15420;48.636;9.798;2022-11-24T00:28:51;6.27;;;1.60;;
2760;SDS011;15420;48.636;9.798;2022-11-24T00:31:22;5.60;;;1.63;;
2760;SDS011;15420;48.636;9.798;2022-11-24T00:33:55;7.00;;;2.43;;
2760;SDS011;15420;48.636;9.798;2022-11-24T00:36:23;4.07;;;2.70;;
2760;SDS011;15420;48.636;9.798;2022-11-24T00:38:54;6.80;;;2.00;;
2760;SDS011;15420;48.636;9.798;2022-11-24T00:41:24;5.07;;;1.70;;
2760;SDS011;15420;48.636;9.798;2022-11-24T00:43:51;2.37;;;1.63;;
2760;SDS011;15420;48.636;9.798;2022-11-24T00:46:18;7.67;;;2.13;;
2760;SDS011;15420;48.636;9.798;2022-11-24T00:48:47;5.47;;;2.30;;
2760;SDS011;15420;48.636;9.798;2022-11-24T00:51:15;6.47;;;2.03;;
2760;SDS011;15420;48.636;9.798;2022-11-24T00:53:43;7.40;;;1.90;;
2760;SDS011;15420;48.636;9.798;2022-11-24T00:56:09;4.90;;;2.20;;
2760;SDS011;15420;48.636;9.798;2022-11-24T00:58:36;6.77;;;2.10;;
2760;SDS011;15420;48.636;9.798;2022-11-24T01:03:42;4.23;;;2.13;;
2760;SDS011;15420;48.636;9.798;2022-11-24T01:06:14;9.53;;;2.10;;
2760;SDS011;15420;48.636;9.798;2022-11-24T01:08:43;9.47;;;1.60;;
2760;SDS011;15420;48.636;9.798;2022-11-24T01:11:21;5.73;;;2.20;;
2760;SDS011;15420;48.636;9.798;2022-11-24T01:14:22;10.70;;;1.80;;
2760;SDS011;15420;48.636;9.798;2022-11-24T01:16:52;7.50;;;3.53;;
2760;SDS011;15420;48.636;9.798;2022-11-24T01:19:19;7.80;;;1.87;;
2760;SDS011;15420;48.636;9.798;2022-11-24T01:21:45;6.63;;;1.60;;
2760;SDS011;15420;48.636;9.798;2022-11-24T01:24:14;4.97;;;2.23;;
2760;SDS011;15420;48.636;9.798;2022-11-24T01:26:40;4.00;;;1.37;;
2760;SDS011;15420;48.636;9.798;2022-11-24T01:29:08;4.30;;;1.70;;
2760;SDS011;15420;48.636;9.798;2022-11-24T01:31:36;3.77;;;1.70;;
2760;SDS011;15420;48.636;9.798;2022-11-24T01:34:04;2.60;;;1.67;;
2760;SDS011;15420;48.636;9.798;2022-11-24T01:36:31;6.53;;;1.70;;
2760;SDS011;15420;48.636;9.798;2022-11-24T01:39:00;5.47;;;1.77;;
2760;SDS011;15420;48.636;9.798;2022-11-24T01:41:26;12.70;;;1.90;;
2760;SDS011;15420;48.636;9.798;2022-11-24T01:43:53;6.20;;;1.83;;
2760;SDS011;15420;48.636;9.798;2022-11-24T01:51:47;7.30;;;2.17;;
2760;SDS011;15420;48.636;9.798;2022-11-24T01:54:20;4.07;;;1.40;;
2760;SDS011;15420;48.636;9.798;2022-11-24T01:56:56;8.63;;;2.00;;
2760;SDS011;15420;48.636;9.798;2022-11-24T01:59:36;6.50;;;1.83;;
2760;SDS011;15420;48.636;9.798;2022-11-24T02:02:05;7.73;;;2.00;;
2760;SDS011;15420;48.636;9.798;2022-11-24T02:04:34;5.53;;;2.20;;
2760;SDS011;15420;48.636;9.798;2022-11-24T02:07:01;6.63;;;1.67;;
2760;SDS011;15420;48.636;9.798;2022-11-24T02:09:42;6.10;;;2.80;;
2760;SDS011;15420;48.636;9.798;2022-11-24T02:12:17;2.60;;;1.53;;
2760;SDS011;15420;48.636;9.798;2022-11-24T02:14:46;8.07;;;2.17;;
2760;SDS011;15420;48.636;9.798;2022-11-24T02:17:12;3.10;;;1.50;;
2760;SDS011;15420;48.636;9.798;2022-11-24T02:22:05;10.50;;;2.57;;
2760;SDS011;15420;48.636;9.798;2022-11-24T02:24:44;6.13;;;1.90;;
2760;SDS011;15420;48.636;9.798;2022-11-24T02:27:15;3.20;;;1.20;;
2760;SDS011;15420;48.636;9.798;2022-11-24T02:29:43;4.87;;;1.80;;
2760;SDS011;15420;48.636;9.798;2022-11-24T02:32:09;2.00;;;1.37;;
2760;SDS011;15420;48.636;9.798;2022-11-24T02:34:36;1.47;;;1.37;;
2760;SDS011;15420;48.636;9.798;2022-11-24T02:37:02;3.27;;;1.40;;
2760;SDS011;15420;48.636;9.798;2022-11-24T02:39:31;3.27;;;1.63;;
2760;SDS011;15420;48.636;9.798;2022-11-24T02:41:58;2.13;;;1.53;;
2760;SDS011;15420;48.636;9.798;2022-11-24T02:44:31;2.10;;;1.37;;
2760;SDS011;15420;48.636;9.798;2022-11-24T02:47:07;4.00;;;1.53;;
2760;SDS011;15420;48.636;9.798;2022-11-24T02:49:35;2.90;;;1.30;;
2760;SDS011;15420;48.636;9.798;2022-11-24T02:52:06;9.03;;;1.57;;
2760;SDS011;15420;48.636;9.798;2022-11-24T02:54:34;8.00;;;1.30;;
2760;SDS011;15420;48.636;9.798;2022-11-24T02:57:00;6.13;;;1.50;;
2760;SDS011;15420;48.636;9.798;2022-11-24T02:59:26;3.33;;;1.17;;
2760;SDS011;15420;48.636;9.798;2022-11-24T03:01:52;5.80;;;1.80;;
2760;SDS011;15420;48.636;9.798;2022-11-24T03:04:23;4.13;;;1.53;;
2760;SDS011;15420;48.636;9.798;2022-11-24T03:06:57;4.17;;;1.27;;
2760;SDS011;15420;48.636;9.798;2022-11-24T03:09:25;17.10;;;2.27;;
2760;SDS011;15420;48.636;9.798;2022-11-24T03:11:52;4.40;;;1.87;;
2760;SDS011;15420;48.636;9.798;2022-11-24T03:14:20;3.20;;;1.53;;
2760;SDS011;15420;48.636;9.798;2022-11-24T03:16:46;1.80;;;0.93;;
2760;SDS011;15420;48.636;9.798;2022-11-24T03:19:12;9.70;;;1.63;;
2760;SDS011;15420;48.636;9.798;2022-11-24T03:21:38;2.97;;;1.37;;
2760;SDS011;15420;48.636;9.798;2022-11-24T03:24:04;7.07;;;1.60;;
2760;SDS011;15420;48.636;9.798;2022-11-24T03:26:32;4.37;;;1.33;;
2760;SDS011;15420;48.636;9.798;2022-11-24T03:28:58;4.33;;;1.50;;
2760;SDS011;15420;48.636;9.798;2022-11-24T03:31:25;2.40;;;1.40;;
2760;SDS011;15420;48.636;9.798;2022-11-24T03:33:51;6.73;;;1.00;;
2760;SDS011;15420;48.636;9.798;2022-11-24T03:36:19;2.80;;;1.07;;
2760;SDS011;15420;48.636;9.798;2022-11-24T03:38:45;9.90;;;1.37;;
2760;SDS011;15420;48.636;9.798;2022-11-24T03:41:12;2.67;;;1.53;;
2760;SDS011;15420;48.636;9.798;2022-11-24T03:43:38;4.20;;;1.03;;
2760;SDS011;15420;48.636;9.798;2022-11-24T03:46:09;4.97;;;1.30;;
2760;SDS011;15420;48.636;9.798;2022-11-24T03:48:36;3.20;;;1.40;;
2760;SDS011;15420;48.636;9.798;2022-11-24T03:51:04;5.20;;;2.00;;
2760;SDS011;15420;48.636;9.798;2022-11-24T03:53:31;1.37;;;1.27;;
2760;SDS011;15420;48.636;9.798;2022-11-24T03:55:59;1.93;;;0.90;;
2760;SDS011;15420;48.636;9.798;2022-11-24T03:58:29;3.43;;;1.37;;
2760;SDS011;15420;48.636;9.798;2022-11-24T04:00:55;7.50;;;1.37;;
2760;SDS011;15420;48.636;9.798;2022-11-24T04:03:22;2.97;;;1.37;;
2760;SDS011;15420;48.636;9.798;2022-11-24T04:05:48;3.57;;;1.60;;
2760;SDS011;15420;48.636;9.798;2022-11-24T04:08:15;4.20;;;1.20;;
2760;SDS011;15420;48.636;9.798;2022-11-24T04:10:41;3.87;;;1.67;;
2760;SDS011;15420;48.636;9.798;2022-11-24T04:13:14;3.00;;;1.33;;
2760;SDS011;15420;48.636;9.798;2022-11-24T04:15:41;2.60;;;1.37;;
2760;SDS011;15420;48.636;9.798;2022-11-24T04:18:09;4.87;;;3.57;;
2760;SDS011;15420;48.636;9.798;2022-11-24T04:20:38;5.30;;;4.80;;
2760;SDS011;15420;48.636;9.798;2022-11-24T04:23:05;6.57;;;4.27;;
2760;SDS011;15420;48.636;9.798;2022-11-24T04:25:35;13.47;;;3.80;;
2760;SDS011;15420;48.636;9.798;2022-11-24T04:28:02;3.33;;;2.83;;
2760;SDS011;15420;48.636;9.798;2022-11-24T04:30:28;5.70;;;2.30;;
2760;SDS011;15420;48.636;9.798;2022-11-24T04:32:57;6.90;;;1.97;;
2760;SDS011;15420;48.636;9.798;2022-11-24T04:35:26;5.33;;;1.87;;
2760;SDS011;15420;48.636;9.798;2022-11-24T04:38:00;2.10;;;1.70;;
2760;SDS011;15420;48.636;9.798;2022-11-24T04:40:26;4.57;;;2.47;;
2760;SDS011;15420;48.636;9.798;2022-11-24T04:42:53;6.13;;;1.90;;
2760;SDS011;15420;48.636;9.798;2022-11-24T04:45:20;3.30;;;2.33;;
2760;SDS011;15420;48.636;9.798;2022-11-24T04:47:49;2.90;;;1.37;;
2760;SDS011;15420;48.636;9.798;2022-11-24T04:50:17;10.00;;;1.93;;
2760;SDS011;15420;48.636;9.798;2022-11-24T04:52:44;6.90;;;2.00;;
2760;SDS011;15420;48.636;9.798;2022-11-24T04:55:10;8.53;;;3.47;;
2760;SDS011;15420;48.636;9.798;2022-11-24T04:57:39;11.90;;;3.60;;
2760;SDS011;15420;48.636;9.798;2022-11-24T05:00:06;9.03;;;4.40;;
2760;SDS011;15420;48.636;9.798;2022-11-24T05:02:33;8.37;;;4.53;;
2760;SDS011;15420;48.636;9.798;2022-11-24T05:04:59;6.27;;;3.57;;
2760;SDS011;15420;48.636;9.798;2022-11-24T05:07:25;9.87;;;3.60;;
2760;SDS011;15420;48.636;9.798;2022-11-24T05:09:51;4.03;;;2.70;;
2760;SDS011;15420;48.636;9.798;2022-11-24T05:12:36;8.00;;;2.50;;
2760;SDS011;15420;48.636;9.798;2022-11-24T05:15:03;4.00;;;2.20;;
2760;SDS011;15420;48.636;9.798;2022-11-24T05:17:32;6.97;;;2.20;;
2760;SDS011;15420;48.636;9.798;2022-11-24T05:20:03;6.60;;;2.53;;
2760;SDS011;15420;48.636;9.798;2022-11-24T05:22:30;6.73;;;2.20;;
2760;SDS011;15420;48.636;9.798;2022-11-24T05:24:56;3.87;;;2.43;;
2760;SDS011;15420;48.636;9.798;2022-11-24T05:27:23;8.10;;;2.50;;
2760;SDS011;15420;48.636;9.798;2022-11-24T05:29:49;5.20;;;2.00;;
2760;SDS011;15420;48.636;9.798;2022-11-24T05:32:17;3.57;;;1.77;;
2760;SDS011;15420;48.636;9.798;2022-11-24T05:34:44;3.77;;;1.70;;
2760;SDS011;15420;48.636;9.798;2022-11-24T05:37:12;3.77;;;1.70;;
2760;SDS011;15420;48.636;9.798;2022-11-24T05:39:41;2.47;;;1.67;;
2760;SDS011;15420;48.636;9.798;2022-11-24T05:42:08;3.23;;;1.60;;
2760;SDS011;15420;48.636;9.798;2022-11-24T05:44:53;2.50;;;1.70;;
2760;SDS011;15420;48.636;9.798;2022-11-24T05:47:19;5.03;;;1.70;;
2760;SDS011;15420;48.636;9.798;2022-11-24T05:49:48;5.50;;;1.93;;
2760;SDS011;15420;48.636;9.798;2022-11-24T05:52:16;3.23;;;1.70;;
2760;SDS011;15420;48.636;9.798;2022-11-24T05:54:45;7.00;;;2.10;;
2760;SDS011;15420;48.636;9.798;2022-11-24T05:57:11;4.13;;;1.63;;
2760;SDS011;15420;48.636;9.798;2022-11-24T05:59:39;2.80;;;1.90;;
2760;SDS011;15420;48.636;9.798;2022-11-24T06:02:05;3.07;;;1.97;;
2760;SDS011;15420;48.636;9.798;2022-11-24T06:04:31;8.83;;;3.00;;
2760;SDS011;15420;48.636;9.798;2022-11-24T06:07:00;4.80;;;3.00;;
2760;SDS011;15420;48.636;9.798;2022-11-24T06:09:27;4.47;;;3.10;;
2760;SDS011;15420;48.636;9.798;2022-11-24T06:11:55;5.67;;;3.30;;
2760;SDS011;15420;48.636;9.798;2022-11-24T06:14:22;5.60;;;3.60;;
2760;SDS011;15420;48.636;9.798;2022-11-24T06:16:52;3.03;;;2.57;;
2760;SDS011;15420;48.636;9.798;2022-11-24T06:19:20;8.57;;;3.00;;
2760;SDS011;15420;48.636;9.798;2022-11-24T06:21:46;6.83;;;4.30;;
2760;SDS011;15420;48.636;9.798;2022-11-24T06:24:13;16.73;;;6.87;;
2760;SDS011;15420;48.636;9.798;2022-11-24T06:26:39;5.33;;;3.97;;
2760;SDS011;15420;48.636;9.798;2022-11-24T06:29:05;11.50;;;5.93;;
2760;SDS011;15420;48.636;9.798;2022-11-24T06:31:36;6.17;;;4.70;;
2760;SDS011;15420;48.636;9.798;2022-11-24T06:34:05;3.47;;;2.67;;
2760;SDS011;15420;48.636;9.798;2022-11-24T06:36:32;6.30;;;2.90;;
2760;SDS011;15420;48.636;9.798;2022-11-24T06:39:01;2.73;;;2.33;;
2760;SDS011;15420;48.636;9.798;2022-11-24T06:41:33;5.80;;;2.47;;
2760;SDS011;15420;48.636;9.798;2022-11-24T06:44:01;3.87;;;2.40;;
2760;SDS011;15420;48.636;9.798;2022-11-24T06:46:27;4.33;;;2.57;;
2760;SDS011;15420;48.636;9.798;2022-11-24T06:48:56;3.13;;;2.30;;
2760;SDS011;15420;48.636;9.798;2022-11-24T06:51:23;8.50;;;2.87;;
2760;SDS011;15420;48.636;9.798;2022-11-24T06:53:50;8.43;;;3.10;;
2760;SDS011;15420;48.636;9.798;2022-11-24T06:56:19;3.93;;;2.00;;
2760;SDS011;15420;48.636;9.798;2022-11-24T06:58:46;5.13;;;2.43;;
2760;SDS011;15420;48.636;9.798;2022-11-24T07:01:20;2.37;;;2.17;;
2760;SDS011;15420;48.636;9.798;2022-11-24T07:03:48;4.60;;;3.40;;
2760;SDS011;15420;48.636;9.798;2022-11-24T07:06:18;7.90;;;3.03;;
2760;SDS011;15420;48.636;9.798;2022-11-24T07:08:45;14.63;;;8.40;;
2760;SDS011;15420;48.636;9.798;2022-11-24T07:11:13;16.33;;;9.30;;
2760;SDS011;15420;48.636;9.798;2022-11-24T07:13:41;12.77;;;6.77;;
2760;SDS011;15420;48.636;9.798;2022-11-24T07:18:41;8.10;;;3.47;;
2760;SDS011;15420;48.636;9.798;2022-11-24T07:21:09;9.60;;;2.93;;
2760;SDS011;15420;48.636;9.798;2022-11-24T07:23:40;8.33;;;3.90;;
2760;SDS011;15420;48.636;9.798;2022-11-24T07:26:09;9.37;;;4.27;;
2760;SDS011;15420;48.636;9.798;2022-11-24T07:28:40;6.60;;;2.43;;
2760;SDS011;15420;48.636;9.798;2022-11-24T07:31:10;8.23;;;5.47;;
2760;SDS011;15420;48.636;9.798;2022-11-24T07:33:37;7.20;;;5.37;;
2760;SDS011;15420;48.636;9.798;2022-11-24T07:36:04;6.60;;;2.97;;
2760;SDS011;15420;48.636;9.798;2022-11-24T07:38:32;3.60;;;2.60;;
2760;SDS011;15420;48.636;9.798;2022-11-24T07:41:01;5.30;;;2.90;;
2760;SDS011;15420;48.636;9.798;2022-11-24T07:43:32;3.70;;;2.30;;
2760;SDS011;15420;48.636;9.798;2022-11-24T07:45:59;2.87;;;2.50;;
2760;SDS011;15420;48.636;9.798;2022-11-24T07:48:26;11.63;;;3.13;;
2760;SDS011;15420;48.636;9.798;2022-11-24T07:50:57;17.17;;;4.70;;
2760;SDS011;15420;48.636;9.798;2022-11-24T07:53:24;5.70;;;4.00;;
2760;SDS011;15420;48.636;9.798;2022-11-24T07:55:54;8.37;;;5.20;;
2760;SDS011;15420;48.636;9.798;2022-11-24T07:58:22;5.87;;;3.40;;
2760;SDS011;15420;48.636;9.798;2022-11-24T08:00:50;8.80;;;2.90;;
2760;SDS011;15420;48.636;9.798;2022-11-24T08:03:16;6.40;;;2.37;;
2760;SDS011;15420;48.636;9.798;2022-11-24T08:06:03;6.20;;;2.53;;
2760;SDS011;15420;48.636;9.798;2022-11-24T08:08:29;8.77;;;3.70;;
2760;SDS011;15420;48.636;9.798;2022-11-24T08:10:57;8.37;;;3.27;;
2760;SDS011;15420;48.636;9.798;2022-11-24T08:13:37;7.47;;;2.83;;
2760;SDS011;15420;48.636;9.798;2022-11-24T08:16:10;10.67;;;3.00;;
2760;SDS011;15420;48.636;9.798;2022-11-24T08:18:39;6.27;;;2.40;;
2760;SDS011;15420;48.636;9.798;2022-11-24T08:21:14;9.90;;;2.97;;
2760;SDS011;15420;48.636;9.798;2022-11-24T08:23:40;9.90;;;3.30;;
2760;SDS011;15420;48.636;9.798;2022-11-24T08:26:07;7.10;;;3.40;;
2760;SDS011;15420;48.636;9.798;2022-11-24T08:28:42;8.10;;;3.77;;
2760;SDS011;15420;48.636;9.798;2022-11-24T08:31:11;7.33;;;4.30;;
2760;SDS011;15420;48.636;9.798;2022-11-24T08:33:40;27.63;;;14.07;;
2760;SDS011;15420;48.636;9.798;2022-11-24T08:36:07;104.13;;;43.87;;
2760;SDS011;15420;48.636;9.798;2022-11-24T08:38:35;50.33;;;20.57;;
2760;SDS011;15420;48.636;9.798;2022-11-24T08:41:08;26.13;;;12.10;;
2760;SDS011;15420;48.636;9.798;2022-11-24T08:43:38;25.30;;;11.73;;
2760;SDS011;15420;48.636;9.798;2022-11-24T08:46:06;14.77;;;7.80;;
2760;SDS011;15420;48.636;9.798;2022-11-24T08:48:36;10.53;;;4.80;;
2760;SDS011;15420;48.636;9.798;2022-11-24T08:51:06;6.50;;;3.50;;
2760;SDS011;15420;48.636;9.798;2022-11-24T08:53:34;9.30;;;3.73;;
2760;SDS011;15420;48.636;9.798;2022-11-24T08:56:01;9.27;;;5.33;;
2760;SDS011;15420;48.636;9.798;2022-11-24T08:58:28;10.80;;;4.80;;
2760;SDS011;15420;48.636;9.798;2022-11-24T09:01:07;10.80;;;4.70;;
2760;SDS011;15420;48.636;9.798;2022-11-24T09:03:37;6.63;;;3.47;;
2760;SDS011;15420;48.636;9.798;2022-11-24T09:06:07;10.63;;;5.50;;
2760;SDS011;15420;48.636;9.798;2022-11-24T09:08:36;9.53;;;4.07;;
2760;SDS011;15420;48.636;9.798;2022-11-24T09:11:12;12.53;;;5.20;;
2760;SDS011;15420;48.636;9.798;2022-11-24T09:13:39;6.50;;;4.50;;
2760;SDS011;15420;48.636;9.798;2022-11-24T09:16:10;15.17;;;5.53;;
2760;SDS011;15420;48.636;9.798;2022-11-24T09:18:41;11.17;;;4.83;;
2760;SDS011;15420;48.636;9.798;2022-11-24T09:21:19;12.70;;;4.20;;
2760;SDS011;15420;48.636;9.798;2022-11-24T09:23:47;7.70;;;4.50;;
2760;SDS011;15420;48.636;9.798;2022-11-24T09:26:18;12.87;;;6.53;;
2760;SDS011;15420;48.636;9.798;2022-11-24T09:28:49;15.53;;;6.40;;
2760;SDS011;15420;48.636;9.798;2022-11-24T09:31:18;10.77;;;4.93;;
2760;SDS011;15420;48.636;9.798;2022-11-24T09:33:46;7.30;;;4.20;;
2760;SDS011;15420;48.636;9.798;2022-11-24T09:36:12;8.30;;;4.50;;
2760;SDS011;15420;48.636;9.798;2022-11-24T09:38:38;6.63;;;3.70;;
2760;SDS011;15420;48.636;9.798;2022-11-24T09:49:13;2.67;;;1.37;;
2760;SDS011;15420;48.636;9.798;2022-11-24T09:51:45;2.70;;;1.90;;
2760;SDS011;15420;48.636;9.798;2022-11-24T09:54:20;3.17;;;2.33;;
2760;SDS011;15420;48.636;9.798;2022-11-24T09:56:51;4.63;;;3.10;;
2760;SDS011;15420;48.636;9.798;2022-11-24T09:59:19;3.10;;;2.70;;
2760;SDS011;15420;48.636;9.798;2022-11-24T10:01:46;1.60;;;1.43;;
2760;SDS011;15420;48.636;9.798;2022-11-24T10:04:25;0.77;;;0.77;;
2760;SDS011;15420;48.636;9.798;2022-11-24T10:09:53;1.10;;;0.90;;
2760;SDS011;15420;48.636;9.798;2022-11-24T10:15:30;3.77;;;1.87;;
2760;SDS011;15420;48.636;9.798;2022-11-24T10:28:58;3.80;;;1.83;;
2760;SDS011;15420;48.636;9.798;2022-11-24T10:31:33;2.17;;;1.97;;
2760;SDS011;15420;48.636;9.798;2022-11-24T10:34:18;2.20;;;1.60;;
2760;SDS011;15420;48.636;9.798;2022-11-24T10:42:32;2.83;;;1.20;;
2760;SDS011;15420;48.636;9.798;2022-11-24T10:47:39;1.57;;;1.00;;
2760;SDS011;15420;48.636;9.798;2022-11-24T10:50:20;1.50;;;1.00;;
2760;SDS011;15420;48.636;9.798;2022-11-24T10:52:50;0.97;;;0.90;;
2760;SDS011;15420;48.636;9.798;2022-11-24T10:58:41;1.00;;;0.90;;
2760;SDS011;15420;48.636;9.798;2022-11-24T11:03:46;2.70;;;1.20;;
2760;SDS011;15420;48.636;9.798;2022-11-24T11:06:29;2.00;;;1.40;;
2760;SDS011;15420;48.636;9.798;2022-11-24T11:11:33;2.60;;;1.33;;
2760;SDS011;15420;48.636;9.798;2022-11-24T11:14:03;1.10;;;1.00;;
2760;SDS011;15420;48.636;9.798;2022-11-24T11:16:38;0.90;;;0.90;;
2760;SDS011;15420;48.636;9.798;2022-11-24T11:19:46;2.20;;;1.10;;
2760;SDS011;15420;48.636;9.798;2022-11-24T11:24:34;3.60;;;0.80;;
2760;SDS011;15420;48.636;9.798;2022-11-24T11:27:35;1.03;;;0.93;;
2760;SDS011;15420;48.636;9.798;2022-11-24T11:29:54;2.60;;;1.00;;
2760;SDS011;15420;48.636;9.798;2022-11-24T11:32:51;1.30;;;0.80;;
2760;SDS011;15420;48.636;9.798;2022-11-24T11:35:25;0.83;;;0.80;;
2760;SDS011;15420;48.636;9.798;2022-11-24T11:37:58;1.87;;;0.90;;
2760;SDS011;15420;48.636;9.798;2022-11-24T11:40:30;1.37;;;0.77;;
2760;SDS011;15420;48.636;9.798;2022-11-24T11:45:44;3.70;;;1.33;;
2760;SDS011;15420;48.636;9.798;2022-11-24T11:53:47;1.53;;;0.70;;
2760;SDS011;15420;48.636;9.798;2022-11-24T11:56:38;2.93;;;0.90;;
2760;SDS011;15420;48.636;9.798;2022-11-24T11:59:24;2.90;;;0.90;;
2760;SDS011;15420;48.636;9.798;2022-11-24T12:05:14;1.23;;;0.70;;
2760;SDS011;15420;48.636;9.798;2022-11-24T12:22:03;2.80;;;1.90;;
2760;SDS011;15420;48.636;9.798;2022-11-24T12:28:04;3.77;;;2.67;;
2760;SDS011;15420;48.636;9.798;2022-11-24T12:30:40;2.07;;;1.03;;
2760;SDS011;15420;48.636;9.798;2022-11-24T12:33:25;0.83;;;0.70;;
2760;SDS011;15420;48.636;9.798;2022-11-24T12:36:04;2.70;;;1.03;;
2760;SDS011;15420;48.636;9.798;2022-11-24T12:38:54;2.70;;;0.90;;
2760;SDS011;15420;48.636;9.798;2022-11-24T12:41:42;2.50;;;1.00;;
2760;SDS011;15420;48.636;9.798;2022-11-24T12:44:34;2.60;;;1.47;;
2760;SDS011;15420;48.636;9.798;2022-11-24T12:47:24;4.13;;;2.40;;
2760;SDS011;15420;48.636;9.798;2022-11-24T12:50:13;4.53;;;1.60;;
2760;SDS011;15420;48.636;9.798;2022-11-24T12:52:49;4.43;;;1.80;;
2760;SDS011;15420;48.636;9.798;2022-11-24T12:55:28;2.60;;;1.03;;
2760;SDS011;15420;48.636;9.798;2022-11-24T12:58:12;0.97;;;0.83;;
2760;SDS011;15420;48.636;9.798;2022-11-24T13:06:04;2.10;;;1.40;;
2760;SDS011;15420;48.636;9.798;2022-11-24T13:08:37;1.70;;;1.20;;
2760;SDS011;15420;48.636;9.798;2022-11-24T13:14:03;4.20;;;1.87;;
2760;SDS011;15420;48.636;9.798;2022-11-24T13:16:51;5.87;;;2.80;;
2760;SDS011;15420;48.636;9.798;2022-11-24T13:19:19;6.63;;;3.50;;
2760;SDS011;15420;48.636;9.798;2022-11-24T13:24:36;6.30;;;3.37;;
2760;SDS011;15420;48.636;9.798;2022-11-24T13:29:46;8.17;;;3.63;;
2760;SDS011;15420;48.636;9.798;2022-11-24T13:42:27;2.57;;;1.50;;
2760;SDS011;15420;48.636;9.798;2022-11-24T13:50:23;6.80;;;1.30;;
2760;SDS011;15420;48.636;9.798;2022-11-24T13:53:08;4.50;;;1.47;;
2760;SDS011;15420;48.636;9.798;2022-11-24T13:55:57;4.43;;;2.37;;
2760;SDS011;15420;48.636;9.798;2022-11-24T14:06:31;6.93;;;3.00;;
2760;SDS011;15420;48.636;9.798;2022-11-24T14:12:13;4.57;;;2.10;;
2760;SDS011;15420;48.636;9.798;2022-11-24T14:14:42;4.87;;;2.40;;
2760;SDS011;15420;48.636;9.798;2022-11-24T14:19:40;3.10;;;1.70;;
2760;SDS011;15420;48.636;9.798;2022-11-24T14:22:14;2.57;;;2.00;;
2760;SDS011;15420;48.636;9.798;2022-11-24T14:24:55;4.43;;;1.70;;
2760;SDS011;15420;48.636;9.798;2022-11-24T14:27:25;3.83;;;1.80;;
2760;SDS011;15420;48.636;9.798;2022-11-24T14:29:53;3.37;;;2.13;;
2760;SDS011;15420;48.636;9.798;2022-11-24T14:32:21;3.97;;;2.60;;
2760;SDS011;15420;48.636;9.798;2022-11-24T14:34:47;5.07;;;2.90;;
2760;SDS011;15420;48.636;9.798;2022-11-24T14:37:15;5.40;;;2.50;;
2760;SDS011;15420;48.636;9.798;2022-11-24T14:39:43;4.47;;;2.70;;
2760;SDS011;15420;48.636;9.798;2022-11-24T14:42:15;6.40;;;2.90;;
2760;SDS011;15420;48.636;9.798;2022-11-24T14:49:49;13.00;;;3.60;;
2760;SDS011;15420;48.636;9.798;2022-11-24T14:52:16;5.80;;;3.00;;
2760;SDS011;15420;48.636;9.798;2022-11-24T14:54:46;3.50;;;2.20;;
2760;SDS011;15420;48.636;9.798;2022-11-24T15:05:12;4.10;;;2.90;;
2760;SDS011;15420;48.636;9.798;2022-11-24T15:07:40;7.97;;;4.70;;
2760;SDS011;15420;48.636;9.798;2022-11-24T15:10:24;6.93;;;5.00;;
2760;SDS011;15420;48.636;9.798;2022-11-24T15:12:59;7.23;;;3.77;;
2760;SDS011;15420;48.636;9.798;2022-11-24T15:15:29;4.87;;;3.73;;
2760;SDS011;15420;48.636;9.798;2022-11-24T15:18:02;6.73;;;3.00;;
2760;SDS011;15420;48.636;9.798;2022-11-24T15:20:33;5.50;;;3.30;;
2760;SDS011;15420;48.636;9.798;2022-11-24T15:25:40;6.67;;;3.20;;
2760;SDS011;15420;48.636;9.798;2022-11-24T15:28:08;3.70;;;2.70;;
2760;SDS011;15420;48.636;9.798;2022-11-24T15:30:37;7.90;;;4.50;;
2760;SDS011;15420;48.636;9.798;2022-11-24T15:33:10;6.03;;;3.67;;
2760;SDS011;15420;48.636;9.798;2022-11-24T15:35:41;4.23;;;3.30;;
2760;SDS011;15420;48.636;9.798;2022-11-24T15:38:13;5.83;;;3.50;;
2760;SDS011;15420;48.636;9.798;2022-11-24T15:40:43;7.37;;;4.63;;
2760;SDS011;15420;48.636;9.798;2022-11-24T15:45:55;5.17;;;4.07;;
2760;SDS011;15420;48.636;9.798;2022-11-24T15:48:22;7.93;;;4.50;;
2760;SDS011;15420;48.636;9.798;2022-11-24T15:50:49;7.60;;;4.17;;
2760;SDS011;15420;48.636;9.798;2022-11-24T15:53:38;5.63;;;4.87;;
2760;SDS011;15420;48.636;9.798;2022-11-24T15:56:07;8.47;;;5.00;;
2760;SDS011;15420;48.636;9.798;2022-11-24T15:58:47;4.80;;;3.53;;
2760;SDS011;15420;48.636;9.798;2022-11-24T16:01:14;9.50;;;3.97;;
2760;SDS011;15420;48.636;9.798;2022-11-24T16:03:40;5.77;;;3.73;;
2760;SDS011;15420;48.636;9.798;2022-11-24T16:06:07;25.27;;;10.30;;
2760;SDS011;15420;48.636;9.798;2022-11-24T16:08:41;28.10;;;15.27;;
2760;SDS011;15420;48.636;9.798;2022-11-24T16:11:07;23.23;;;13.10;;
2760;SDS011;15420;48.636;9.798;2022-11-24T16:13:33;15.93;;;8.83;;
2760;SDS011;15420;48.636;9.798;2022-11-24T16:15:59;11.47;;;7.93;;
2760;SDS011;15420;48.636;9.798;2022-11-24T16:18:25;6.50;;;4.90;;
2760;SDS011;15420;48.636;9.798;2022-11-24T16:20:51;5.37;;;4.53;;
2760;SDS011;15420;48.636;9.798;2022-11-24T16:23:18;10.13;;;4.50;;
2760;SDS011;15420;48.636;9.798;2022-11-24T16:25:45;12.30;;;4.30;;
2760;SDS011;15420;48.636;9.798;2022-11-24T16:28:13;8.27;;;3.87;;
2760;SDS011;15420;48.636;9.798;2022-11-24T16:30:39;5.67;;;3.10;;
2760;SDS011;15420;48.636;9.798;2022-11-24T16:33:05;5.67;;;2.93;;
2760;SDS011;15420;48.636;9.798;2022-11-24T16:35:34;4.90;;;3.07;;
2760;SDS011;15420;48.636;9.798;2022-11-24T16:38:03;6.57;;;3.60;;
2760;SDS011;15420;48.636;9.798;2022-11-24T16:40:29;7.17;;;3.10;;
2760;SDS011;15420;48.636;9.798;2022-11-24T16:42:56;8.57;;;3.33;;
2760;SDS011;15420;48.636;9.798;2022-11-24T16:45:22;5.53;;;3.13;;
2760;SDS011;15420;48.636;9.798;2022-11-24T16:47:51;12.50;;;6.43;;
2760;SDS011;15420;48.636;9.798;2022-11-24T16:50:18;13.60;;;6.80;;
2760;SDS011;15420;48.636;9.798;2022-11-24T16:52:46;15.17;;;9.17;;
2760;SDS011;15420;48.636;9.798;2022-11-24T16:55:12;14.30;;;8.80;;
2760;SDS011;15420;48.636;9.798;2022-11-24T16:57:41;13.53;;;9.13;;
2760;SDS011;15420;48.636;9.798;2022-11-24T17:00:07;14.13;;;8.37;;
2760;SDS011;15420;48.636;9.798;2022-11-24T17:02:34;11.10;;;7.63;;
2760;SDS011;15420;48.636;9.798;2022-11-24T17:05:02;10.67;;;6.43;;
2760;SDS011;15420;48.636;9.798;2022-11-24T17:07:28;9.50;;;5.90;;
2760;SDS011;15420;48.636;9.798;2022-11-24T17:09:57;8.40;;;5.57;;
2760;SDS011;15420;48.636;9.798;2022-11-24T17:12:24;6.97;;;3.83;;
2760;SDS011;15420;48.636;9.798;2022-11-24T17:14:51;8.27;;;4.67;;
2760;SDS011;15420;48.636;9.798;2022-11-24T17:17:19;7.73;;;4.10;;
2760;SDS011;15420;48.636;9.798;2022-11-24T17:19:46;11.20;;;6.10;;
2760;SDS011;15420;48.636;9.798;2022-11-24T17:22:12;8.90;;;5.07;;
2760;SDS011;15420;48.636;9.798;2022-11-24T17:24:41;5.87;;;4.30;;
2760;SDS011;15420;48.636;9.798;2022-11-24T17:27:09;6.50;;;4.63;;
2760;SDS011;15420;48.636;9.798;2022-11-24T17:29:35;6.30;;;3.80;;
2760;SDS011;15420;48.636;9.798;2022-11-24T17:32:01;16.77;;;9.40;;
2760;SDS011;15420;48.636;9.798;2022-11-24T17:34:27;12.13;;;7.10;;
2760;SDS011;15420;48.636;9.798;2022-11-24T17:36:53;5.83;;;3.90;;
2760;SDS011;15420;48.636;9.798;2022-11-24T17:39:24;4.50;;;3.50;;
2760;SDS011;15420;48.636;9.798;2022-11-24T17:41:51;6.80;;;3.97;;
2760;SDS011;15420;48.636;9.798;2022-11-24T17:44:17;5.53;;;4.40;;
2760;SDS011;15420;48.636;9.798;2022-11-24T17:46:43;19.13;;;9.87;;